Rms Voerde — V2AD8 — position and weather

sailwx.info

Track history (hours):
 
Tides and Currents Weather Stations Pressure Air Temp Water Temp Dewpoint Dewpoint Depression Visibility Wind Speed Wind Dir Waves Ship Positions

Rms Voerde

Last reported at 2016-Sep-22 20:29 UTC. Time now 2016-Sep-27 15:36 UTC.
Position N 59°14' E 004°44'.

Length 90 m; draft 4 m.

Type: Ship. MMSI: 304010905.

Date/timePositionNaut miles runAvg speedWind from/ knotsBaromVisibWave heightAir tempDewpointWater temp
2016-Sep-22 20:29N 59°14' E 004°44'38 4.8
2016-Sep-22 12:33N 58°51' E 005°45'0 0.0
2016-Sep-22 04:33N 58°51' E 005°45'0 0.0
2016-Sep-22 03:33N 58°51' E 005°45'0 0.0
2016-Sep-22 00:33N 58°51' E 005°45'0 0.0
2016-Sep-21 23:33N 58°51' E 005°45'0 0.0
2016-Sep-21 22:33N 58°51' E 005°45'0 0.0
2016-Sep-21 19:33N 58°51' E 005°45'0 0.0
2016-Sep-21 16:33N 58°51' E 005°45'0 0.0
2016-Sep-21 09:33N 58°51' E 005°45'0 0.0
2016-Sep-21 08:33N 58°51' E 005°45'0 0.0
2016-Sep-21 05:33N 58°51' E 005°45'0 0.0
2016-Sep-21 03:33N 58°51' E 005°45'0 0.0
2016-Sep-21 02:33N 58°51' E 005°45'0 0.0
2016-Sep-20 17:33N 58°51' E 005°45'0 0.0
2016-Sep-20 14:33N 58°51' E 005°45'0 0.1
2016-Sep-20 13:33N 58°51' E 005°45'0 0.0
2016-Sep-20 10:33N 58°51' E 005°45'0 0.0
2016-Sep-20 08:33N 58°51' E 005°45'0 0.0
2016-Sep-20 07:33N 58°51' E 005°45'0 0.0
2016-Sep-20 06:33N 58°51' E 005°45'0 0.0
2016-Sep-20 02:33N 58°51' E 005°45'10 3.3
2016-Sep-19 23:33N 59°01' E 005°42'32 8.0
2016-Sep-19 19:33N 58°29' E 005°44'1010.2
2016-Sep-19 18:33N 58°21' E 005°56'2210.4
2016-Sep-19 16:27N 58°06' E 006°27'2010.6
2016-Sep-19 14:33N 57°56' E 006°59'1210.6
2016-Sep-19 13:26N 57°55' E 007°22'235 4.5
2016-Sep-17 09:33N 54°12' E 005°12'1010.3
2016-Sep-17 08:33N 54°02' E 005°07'1010.4
2016-Sep-17 07:34N 53°52' E 005°00'2210.7
2016-Sep-17 05:32N 53°32' E 004°47'5611.4
2016-Sep-17 00:33N 52°41' E 004°05'49 6.9
2016-Sep-16 17:32N 51°54' E 004°25'0 0.0
2016-Sep-16 15:31N 51°54' E 004°25'0 0.0
2016-Sep-16 09:31N 51°54' E 004°25'0 0.0
2016-Sep-16 07:32N 51°54' E 004°25'0 0.0
2016-Sep-16 03:32N 51°54' E 004°25'0 0.0
2016-Sep-16 02:32N 51°54' E 004°25'0 0.0
2016-Sep-16 00:32N 51°54' E 004°25'0 0.0
2016-Sep-15 22:31N 51°54' E 004°25'0 0.0
2016-Sep-15 21:31N 51°54' E 004°25'0 0.0
2016-Sep-15 20:31N 51°54' E 004°25'0 0.0
2016-Sep-15 18:31N 51°54' E 004°25'0 0.0
2016-Sep-15 12:28N 51°54' E 004°25'1 1.4
2016-Sep-15 11:33N 51°54' E 004°27'1 0.1
2016-Sep-15 04:31N 51°54' E 004°28'0 0.0
2016-Sep-15 03:31N 51°54' E 004°28'0 0.0
2016-Sep-15 01:31N 51°54' E 004°28'0 0.0
2016-Sep-14 22:31N 51°54' E 004°28'0 0.0
2016-Sep-14 21:31N 51°54' E 004°28'0 0.0
2016-Sep-14 17:31N 51°54' E 004°28'0 0.0
2016-Sep-14 16:28N 51°54' E 004°28'0 0.0
2016-Sep-14 13:31N 51°54' E 004°28'0 0.0
2016-Sep-14 12:31N 51°54' E 004°28'0 0.0
2016-Sep-14 10:31N 51°54' E 004°28'0 0.0
2016-Sep-14 09:31N 51°54' E 004°28'0 0.0
2016-Sep-14 08:31N 51°54' E 004°28'0 0.0
2016-Sep-14 07:31N 51°54' E 004°28'0 0.0
2016-Sep-14 06:31N 51°54' E 004°28'0 0.0
2016-Sep-14 03:31N 51°54' E 004°28'0 0.0
2016-Sep-13 22:31N 51°54' E 004°28'0 0.0
2016-Sep-13 20:31N 51°54' E 004°28'0 0.0
2016-Sep-13 18:31N 51°54' E 004°28'0 0.0
2016-Sep-13 17:31N 51°54' E 004°28'0 0.0
2016-Sep-13 16:31N 51°54' E 004°28'2 0.5
2016-Sep-13 11:33N 51°55' E 004°25'0 0.0
2016-Sep-13 09:33N 51°55' E 004°25'0 0.0
2016-Sep-13 07:30N 51°55' E 004°25'0 0.0
2016-Sep-13 06:33N 51°55' E 004°25'0 0.0
2016-Sep-13 04:31N 51°55' E 004°25'0 0.0
2016-Sep-13 02:33N 51°55' E 004°25'0 0.0
2016-Sep-12 23:33N 51°55' E 004°25'0 0.0
2016-Sep-12 21:33N 51°55' E 004°25'  
Track history (hours):
 
Tides and Currents Weather Stations Pressure Air Temp Water Temp Dewpoint Dewpoint Depression Visibility Wind Speed Wind Dir Waves Ship Positions

Rms Voerde

Last reported at 2016-Sep-22 20:29 UTC. Time now 2016-Sep-27 15:36 UTC.
Position N 59°14' E 004°44'.

Length 90 m; draft 4 m.

Type: Ship. MMSI: 304010905.

Date/timePositionNaut miles runAvg speedWind from/ knotsBaromVisibWave heightAir tempDewpointWater temp
2016-Sep-22 20:29N 59°14' E 004°44'38 4.8
2016-Sep-22 12:33N 58°51' E 005°45'0 0.0
2016-Sep-22 04:33N 58°51' E 005°45'0 0.0
2016-Sep-22 03:33N 58°51' E 005°45'0 0.0
2016-Sep-22 00:33N 58°51' E 005°45'0 0.0
2016-Sep-21 23:33N 58°51' E 005°45'0 0.0
2016-Sep-21 22:33N 58°51' E 005°45'0 0.0
2016-Sep-21 19:33N 58°51' E 005°45'0 0.0
2016-Sep-21 16:33N 58°51' E 005°45'0 0.0
2016-Sep-21 09:33N 58°51' E 005°45'0 0.0
2016-Sep-21 08:33N 58°51' E 005°45'0 0.0
2016-Sep-21 05:33N 58°51' E 005°45'0 0.0
2016-Sep-21 03:33N 58°51' E 005°45'0 0.0
2016-Sep-21 02:33N 58°51' E 005°45'0 0.0
2016-Sep-20 17:33N 58°51' E 005°45'0 0.0
2016-Sep-20 14:33N 58°51' E 005°45'0 0.1
2016-Sep-20 13:33N 58°51' E 005°45'0 0.0
2016-Sep-20 10:33N 58°51' E 005°45'0 0.0
2016-Sep-20 08:33N 58°51' E 005°45'0 0.0
2016-Sep-20 07:33N 58°51' E 005°45'0 0.0
2016-Sep-20 06:33N 58°51' E 005°45'0 0.0
2016-Sep-20 02:33N 58°51' E 005°45'10 3.3
2016-Sep-19 23:33N 59°01' E 005°42'32 8.0
2016-Sep-19 19:33N 58°29' E 005°44'1010.2
2016-Sep-19 18:33N 58°21' E 005°56'2210.4
2016-Sep-19 16:27N 58°06' E 006°27'2010.6
2016-Sep-19 14:33N 57°56' E 006°59'1210.6
2016-Sep-19 13:26N 57°55' E 007°22'235 4.5
2016-Sep-17 09:33N 54°12' E 005°12'1010.3
2016-Sep-17 08:33N 54°02' E 005°07'1010.4
2016-Sep-17 07:34N 53°52' E 005°00'2210.7
2016-Sep-17 05:32N 53°32' E 004°47'5611.4
2016-Sep-17 00:33N 52°41' E 004°05'49 6.9
2016-Sep-16 17:32N 51°54' E 004°25'0 0.0
2016-Sep-16 15:31N 51°54' E 004°25'0 0.0
2016-Sep-16 09:31N 51°54' E 004°25'0 0.0
2016-Sep-16 07:32N 51°54' E 004°25'0 0.0
2016-Sep-16 03:32N 51°54' E 004°25'0 0.0
2016-Sep-16 02:32N 51°54' E 004°25'0 0.0
2016-Sep-16 00:32N 51°54' E 004°25'0 0.0
2016-Sep-15 22:31N 51°54' E 004°25'0 0.0
2016-Sep-15 21:31N 51°54' E 004°25'0 0.0
2016-Sep-15 20:31N 51°54' E 004°25'0 0.0
2016-Sep-15 18:31N 51°54' E 004°25'0 0.0
2016-Sep-15 12:28N 51°54' E 004°25'1 1.4
2016-Sep-15 11:33N 51°54' E 004°27'1 0.1
2016-Sep-15 04:31N 51°54' E 004°28'0 0.0
2016-Sep-15 03:31N 51°54' E 004°28'0 0.0
2016-Sep-15 01:31N 51°54' E 004°28'0 0.0
2016-Sep-14 22:31N 51°54' E 004°28'0 0.0
2016-Sep-14 21:31N 51°54' E 004°28'0 0.0
2016-Sep-14 17:31N 51°54' E 004°28'0 0.0
2016-Sep-14 16:28N 51°54' E 004°28'0 0.0
2016-Sep-14 13:31N 51°54' E 004°28'0 0.0
2016-Sep-14 12:31N 51°54' E 004°28'0 0.0
2016-Sep-14 10:31N 51°54' E 004°28'0 0.0
2016-Sep-14 09:31N 51°54' E 004°28'0 0.0
2016-Sep-14 08:31N 51°54' E 004°28'0 0.0
2016-Sep-14 07:31N 51°54' E 004°28'0 0.0
2016-Sep-14 06:31N 51°54' E 004°28'0 0.0
2016-Sep-14 03:31N 51°54' E 004°28'0 0.0
2016-Sep-13 22:31N 51°54' E 004°28'0 0.0
2016-Sep-13 20:31N 51°54' E 004°28'0 0.0
2016-Sep-13 18:31N 51°54' E 004°28'0 0.0
2016-Sep-13 17:31N 51°54' E 004°28'0 0.0
2016-Sep-13 16:31N 51°54' E 004°28'2 0.5
2016-Sep-13 11:33N 51°55' E 004°25'0 0.0
2016-Sep-13 09:33N 51°55' E 004°25'0 0.0
2016-Sep-13 07:30N 51°55' E 004°25'0 0.0
2016-Sep-13 06:33N 51°55' E 004°25'0 0.0
2016-Sep-13 04:31N 51°55' E 004°25'0 0.0
2016-Sep-13 02:33N 51°55' E 004°25'0 0.0
2016-Sep-12 23:33N 51°55' E 004°25'0 0.0
2016-Sep-12 21:33N 51°55' E 004°25'  

Dump ship's entire track history